sensor_id;sensor_type;location;lat;lon;timestamp;P1;durP1;ratioP1;P2;durP2;ratioP2
15273;SDS011;7738;49.532;11.156;2022-09-12T00:02:09;5.07;;;4.22;;
15273;SDS011;7738;49.532;11.156;2022-09-12T00:04:39;5.60;;;4.82;;
15273;SDS011;7738;49.532;11.156;2022-09-12T00:07:10;6.30;;;5.07;;
15273;SDS011;7738;49.532;11.156;2022-09-12T00:09:40;5.20;;;4.70;;
15273;SDS011;7738;49.532;11.156;2022-09-12T00:12:10;4.95;;;4.40;;
15273;SDS011;7738;49.532;11.156;2022-09-12T00:14:40;5.70;;;4.60;;
15273;SDS011;7738;49.532;11.156;2022-09-12T00:17:13;12.00;;;4.70;;
15273;SDS011;7738;49.532;11.156;2022-09-12T00:19:43;5.28;;;4.22;;
15273;SDS011;7738;49.532;11.156;2022-09-12T00:22:13;6.47;;;5.30;;
15273;SDS011;7738;49.532;11.156;2022-09-12T00:24:43;5.25;;;4.75;;
15273;SDS011;7738;49.532;11.156;2022-09-12T00:27:14;6.32;;;4.60;;
15273;SDS011;7738;49.532;11.156;2022-09-12T00:29:44;5.00;;;4.25;;
15273;SDS011;7738;49.532;11.156;2022-09-12T00:32:17;4.88;;;3.97;;
15273;SDS011;7738;49.532;11.156;2022-09-12T00:34:47;5.25;;;3.40;;
15273;SDS011;7738;49.532;11.156;2022-09-12T00:37:17;6.18;;;3.92;;
15273;SDS011;7738;49.532;11.156;2022-09-12T00:39:47;4.28;;;3.88;;
15273;SDS011;7738;49.532;11.156;2022-09-12T00:42:17;4.90;;;3.53;;
15273;SDS011;7738;49.532;11.156;2022-09-12T00:44:48;4.15;;;3.55;;
15273;SDS011;7738;49.532;11.156;2022-09-12T00:47:23;4.70;;;3.78;;
15273;SDS011;7738;49.532;11.156;2022-09-12T00:49:54;4.18;;;3.60;;
15273;SDS011;7738;49.532;11.156;2022-09-12T00:52:27;3.40;;;3.10;;
15273;SDS011;7738;49.532;11.156;2022-09-12T00:54:59;3.83;;;3.25;;
15273;SDS011;7738;49.532;11.156;2022-09-12T00:57:31;3.33;;;2.97;;
15273;SDS011;7738;49.532;11.156;2022-09-12T01:00:06;3.38;;;2.72;;
15273;SDS011;7738;49.532;11.156;2022-09-12T01:02:44;3.70;;;2.97;;
15273;SDS011;7738;49.532;11.156;2022-09-12T01:05:15;3.40;;;2.83;;
15273;SDS011;7738;49.532;11.156;2022-09-12T01:07:46;4.10;;;2.65;;
15273;SDS011;7738;49.532;11.156;2022-09-12T01:10:16;3.92;;;2.38;;
15273;SDS011;7738;49.532;11.156;2022-09-12T01:25:23;2.65;;;2.45;;
15273;SDS011;7738;49.532;11.156;2022-09-12T01:28:02;3.70;;;2.45;;
15273;SDS011;7738;49.532;11.156;2022-09-12T01:30:42;1.90;;;1.70;;
15273;SDS011;7738;49.532;11.156;2022-09-12T01:36:03;2.20;;;2.00;;
15273;SDS011;7738;49.532;11.156;2022-09-12T01:38:35;3.15;;;2.55;;
15273;SDS011;7738;49.532;11.156;2022-09-12T01:41:09;2.35;;;1.88;;
15273;SDS011;7738;49.532;11.156;2022-09-12T01:43:43;3.90;;;1.92;;
15273;SDS011;7738;49.532;11.156;2022-09-12T01:46:20;1.95;;;1.75;;
15273;SDS011;7738;49.532;11.156;2022-09-12T01:48:53;2.95;;;2.58;;
15273;SDS011;7738;49.532;11.156;2022-09-12T01:51:24;3.22;;;2.92;;
15273;SDS011;7738;49.532;11.156;2022-09-12T01:53:57;2.72;;;2.20;;
15273;SDS011;7738;49.532;11.156;2022-09-12T01:56:30;2.92;;;2.63;;
15273;SDS011;7738;49.532;11.156;2022-09-12T01:59:04;2.70;;;2.50;;
15273;SDS011;7738;49.532;11.156;2022-09-12T02:01:42;2.50;;;2.28;;
15273;SDS011;7738;49.532;11.156;2022-09-12T02:04:17;3.20;;;2.47;;
15273;SDS011;7738;49.532;11.156;2022-09-12T02:06:49;2.55;;;2.35;;
15273;SDS011;7738;49.532;11.156;2022-09-12T02:09:25;3.80;;;2.33;;
15273;SDS011;7738;49.532;11.156;2022-09-12T02:11:58;2.80;;;2.45;;
15273;SDS011;7738;49.532;11.156;2022-09-12T02:14:30;3.08;;;2.33;;
15273;SDS011;7738;49.532;11.156;2022-09-12T02:17:05;3.03;;;2.73;;
15273;SDS011;7738;49.532;11.156;2022-09-12T02:19:39;3.45;;;3.00;;
15273;SDS011;7738;49.532;11.156;2022-09-12T02:22:10;2.72;;;2.30;;
15273;SDS011;7738;49.532;11.156;2022-09-12T02:24:43;5.40;;;2.65;;
15273;SDS011;7738;49.532;11.156;2022-09-12T02:27:15;6.65;;;3.00;;
15273;SDS011;7738;49.532;11.156;2022-09-12T02:29:47;2.58;;;2.28;;
15273;SDS011;7738;49.532;11.156;2022-09-12T02:32:22;3.45;;;2.70;;
15273;SDS011;7738;49.532;11.156;2022-09-12T02:34:56;3.83;;;3.10;;
15273;SDS011;7738;49.532;11.156;2022-09-12T02:37:41;3.35;;;2.67;;
15273;SDS011;7738;49.532;11.156;2022-09-12T02:40:20;5.80;;;2.63;;
15273;SDS011;7738;49.532;11.156;2022-09-12T02:42:51;2.67;;;2.42;;
15273;SDS011;7738;49.532;11.156;2022-09-12T02:45:21;3.20;;;2.72;;
15273;SDS011;7738;49.532;11.156;2022-09-12T02:47:55;3.88;;;2.75;;
15273;SDS011;7738;49.532;11.156;2022-09-12T02:50:28;3.08;;;2.78;;
15273;SDS011;7738;49.532;11.156;2022-09-12T02:52:58;2.90;;;2.60;;
15273;SDS011;7738;49.532;11.156;2022-09-12T02:55:32;3.40;;;2.53;;
15273;SDS011;7738;49.532;11.156;2022-09-12T02:58:04;4.10;;;2.10;;
15273;SDS011;7738;49.532;11.156;2022-09-12T03:00:39;3.38;;;2.30;;
15273;SDS011;7738;49.532;11.156;2022-09-12T03:03:24;2.45;;;2.15;;
15273;SDS011;7738;49.532;11.156;2022-09-12T03:06:11;2.90;;;2.13;;
15273;SDS011;7738;49.532;11.156;2022-09-12T03:08:50;3.90;;;1.80;;
15273;SDS011;7738;49.532;11.156;2022-09-12T03:11:35;2.85;;;1.83;;
15273;SDS011;7738;49.532;11.156;2022-09-12T03:14:34;8.63;;;2.10;;
15273;SDS011;7738;49.532;11.156;2022-09-12T03:17:13;4.43;;;2.13;;
15273;SDS011;7738;49.532;11.156;2022-09-12T03:19:56;2.30;;;2.08;;
15273;SDS011;7738;49.532;11.156;2022-09-12T03:22:29;2.85;;;2.15;;
15273;SDS011;7738;49.532;11.156;2022-09-12T03:25:02;2.20;;;2.00;;
15273;SDS011;7738;49.532;11.156;2022-09-12T03:27:37;3.38;;;1.92;;
15273;SDS011;7738;49.532;11.156;2022-09-12T03:30:09;3.60;;;2.10;;
15273;SDS011;7738;49.532;11.156;2022-09-12T03:32:40;2.60;;;2.17;;
15273;SDS011;7738;49.532;11.156;2022-09-12T03:35:14;2.38;;;2.03;;
15273;SDS011;7738;49.532;11.156;2022-09-12T03:37:49;2.63;;;2.20;;
15273;SDS011;7738;49.532;11.156;2022-09-12T03:40:19;2.22;;;1.80;;
15273;SDS011;7738;49.532;11.156;2022-09-12T03:42:50;4.43;;;2.60;;
15273;SDS011;7738;49.532;11.156;2022-09-12T03:45:20;3.13;;;2.22;;
15273;SDS011;7738;49.532;11.156;2022-09-12T03:47:50;3.20;;;2.72;;
15273;SDS011;7738;49.532;11.156;2022-09-12T03:50:23;2.95;;;2.47;;
15273;SDS011;7738;49.532;11.156;2022-09-12T03:52:53;4.30;;;2.28;;
15273;SDS011;7738;49.532;11.156;2022-09-12T03:55:23;3.15;;;2.30;;
15273;SDS011;7738;49.532;11.156;2022-09-12T03:57:53;2.15;;;1.90;;
15273;SDS011;7738;49.532;11.156;2022-09-12T04:00:24;2.53;;;2.03;;
15273;SDS011;7738;49.532;11.156;2022-09-12T04:02:54;2.10;;;1.67;;
15273;SDS011;7738;49.532;11.156;2022-09-12T04:05:27;2.30;;;2.00;;
15273;SDS011;7738;49.532;11.156;2022-09-12T04:07:57;2.60;;;2.10;;
15273;SDS011;7738;49.532;11.156;2022-09-12T04:10:27;2.22;;;1.80;;
15273;SDS011;7738;49.532;11.156;2022-09-12T04:12:58;2.25;;;1.98;;
15273;SDS011;7738;49.532;11.156;2022-09-12T04:15:28;4.50;;;2.85;;
15273;SDS011;7738;49.532;11.156;2022-09-12T04:17:58;3.05;;;2.28;;
15273;SDS011;7738;49.532;11.156;2022-09-12T04:20:34;4.00;;;2.50;;
15273;SDS011;7738;49.532;11.156;2022-09-12T04:23:04;2.60;;;2.15;;
15273;SDS011;7738;49.532;11.156;2022-09-12T04:25:35;4.53;;;3.00;;
15273;SDS011;7738;49.532;11.156;2022-09-12T04:28:05;3.97;;;2.35;;
15273;SDS011;7738;49.532;11.156;2022-09-12T04:30:35;3.70;;;2.45;;
15273;SDS011;7738;49.532;11.156;2022-09-12T04:33:05;3.08;;;2.47;;
15273;SDS011;7738;49.532;11.156;2022-09-12T04:35:38;3.30;;;2.40;;
15273;SDS011;7738;49.532;11.156;2022-09-12T04:38:08;3.15;;;2.03;;
15273;SDS011;7738;49.532;11.156;2022-09-12T04:40:39;9.13;;;2.33;;
15273;SDS011;7738;49.532;11.156;2022-09-12T04:43:09;3.85;;;2.67;;
15273;SDS011;7738;49.532;11.156;2022-09-12T04:45:40;4.57;;;2.70;;
15273;SDS011;7738;49.532;11.156;2022-09-12T04:48:10;4.05;;;2.63;;
15273;SDS011;7738;49.532;11.156;2022-09-12T04:50:43;4.40;;;3.13;;
15273;SDS011;7738;49.532;11.156;2022-09-12T04:53:13;3.50;;;2.13;;
15273;SDS011;7738;49.532;11.156;2022-09-12T04:55:43;6.95;;;2.50;;
15273;SDS011;7738;49.532;11.156;2022-09-12T04:58:13;2.25;;;1.85;;
15273;SDS011;7738;49.532;11.156;2022-09-12T05:00:43;2.97;;;2.10;;
15273;SDS011;7738;49.532;11.156;2022-09-12T05:03:14;2.28;;;1.90;;
15273;SDS011;7738;49.532;11.156;2022-09-12T05:05:47;3.03;;;2.65;;
15273;SDS011;7738;49.532;11.156;2022-09-12T05:08:21;3.67;;;2.55;;
15273;SDS011;7738;49.532;11.156;2022-09-12T05:10:52;3.22;;;2.72;;
15273;SDS011;7738;49.532;11.156;2022-09-12T05:13:22;4.25;;;2.03;;
15273;SDS011;7738;49.532;11.156;2022-09-12T05:15:53;3.50;;;2.55;;
15273;SDS011;7738;49.532;11.156;2022-09-12T05:18:23;4.35;;;2.38;;
15273;SDS011;7738;49.532;11.156;2022-09-12T05:20:57;3.42;;;2.53;;
15273;SDS011;7738;49.532;11.156;2022-09-12T05:23:27;2.97;;;2.25;;
15273;SDS011;7738;49.532;11.156;2022-09-12T05:25:58;2.72;;;2.20;;
15273;SDS011;7738;49.532;11.156;2022-09-12T05:28:29;3.28;;;2.15;;
15273;SDS011;7738;49.532;11.156;2022-09-12T05:31:00;4.70;;;2.42;;
15273;SDS011;7738;49.532;11.156;2022-09-12T05:33:31;2.78;;;2.22;;
15273;SDS011;7738;49.532;11.156;2022-09-12T05:36:05;3.63;;;2.30;;
15273;SDS011;7738;49.532;11.156;2022-09-12T05:38:37;2.75;;;2.00;;
15273;SDS011;7738;49.532;11.156;2022-09-12T05:41:08;3.40;;;2.38;;
15273;SDS011;7738;49.532;11.156;2022-09-12T05:43:45;3.97;;;2.55;;
15273;SDS011;7738;49.532;11.156;2022-09-12T05:46:16;15.55;;;3.13;;
15273;SDS011;7738;49.532;11.156;2022-09-12T05:48:47;4.28;;;2.67;;
15273;SDS011;7738;49.532;11.156;2022-09-12T05:51:25;3.58;;;2.38;;
15273;SDS011;7738;49.532;11.156;2022-09-12T05:53:57;8.98;;;3.08;;
15273;SDS011;7738;49.532;11.156;2022-09-12T05:56:29;6.38;;;3.00;;
15273;SDS011;7738;49.532;11.156;2022-09-12T05:59:00;5.65;;;2.63;;
15273;SDS011;7738;49.532;11.156;2022-09-12T06:01:32;4.22;;;2.45;;
15273;SDS011;7738;49.532;11.156;2022-09-12T06:04:04;13.73;;;2.50;;
15273;SDS011;7738;49.532;11.156;2022-09-12T06:06:38;4.07;;;2.60;;
15273;SDS011;7738;49.532;11.156;2022-09-12T06:09:11;4.47;;;2.63;;
15273;SDS011;7738;49.532;11.156;2022-09-12T06:11:41;7.75;;;2.78;;
15273;SDS011;7738;49.532;11.156;2022-09-12T06:14:12;5.88;;;3.60;;
15273;SDS011;7738;49.532;11.156;2022-09-12T06:16:44;5.65;;;3.20;;
15273;SDS011;7738;49.532;11.156;2022-09-12T06:19:15;11.20;;;3.53;;
15273;SDS011;7738;49.532;11.156;2022-09-12T06:21:48;4.30;;;3.30;;
15273;SDS011;7738;49.532;11.156;2022-09-12T06:24:19;4.28;;;2.95;;
15273;SDS011;7738;49.532;11.156;2022-09-12T06:26:49;15.30;;;3.90;;
15273;SDS011;7738;49.532;11.156;2022-09-12T06:29:20;4.03;;;2.88;;
15273;SDS011;7738;49.532;11.156;2022-09-12T06:31:51;7.78;;;3.35;;
15273;SDS011;7738;49.532;11.156;2022-09-12T06:34:21;4.63;;;3.67;;
15273;SDS011;7738;49.532;11.156;2022-09-12T06:36:55;5.22;;;3.70;;
15273;SDS011;7738;49.532;11.156;2022-09-12T06:39:25;6.40;;;3.53;;
15273;SDS011;7738;49.532;11.156;2022-09-12T06:41:56;11.98;;;4.07;;
15273;SDS011;7738;49.532;11.156;2022-09-12T06:44:34;5.25;;;3.72;;
15273;SDS011;7738;49.532;11.156;2022-09-12T06:47:04;9.80;;;4.00;;
15273;SDS011;7738;49.532;11.156;2022-09-12T06:49:35;34.85;;;4.68;;
15273;SDS011;7738;49.532;11.156;2022-09-12T06:52:08;35.28;;;4.88;;
15273;SDS011;7738;49.532;11.156;2022-09-12T06:54:38;6.82;;;3.50;;
15273;SDS011;7738;49.532;11.156;2022-09-12T06:57:08;7.20;;;3.90;;
15273;SDS011;7738;49.532;11.156;2022-09-12T06:59:38;10.25;;;4.00;;
15273;SDS011;7738;49.532;11.156;2022-09-12T07:02:08;19.35;;;4.70;;
15273;SDS011;7738;49.532;11.156;2022-09-12T07:04:38;6.78;;;4.47;;
15273;SDS011;7738;49.532;11.156;2022-09-12T07:07:11;50.83;;;7.32;;
15273;SDS011;7738;49.532;11.156;2022-09-12T07:09:41;8.73;;;5.47;;
15273;SDS011;7738;49.532;11.156;2022-09-12T07:12:11;20.15;;;5.85;;
15273;SDS011;7738;49.532;11.156;2022-09-12T07:14:41;7.40;;;5.40;;
15273;SDS011;7738;49.532;11.156;2022-09-12T07:17:12;9.30;;;5.88;;
15273;SDS011;7738;49.532;11.156;2022-09-12T07:19:42;10.68;;;7.15;;
15273;SDS011;7738;49.532;11.156;2022-09-12T07:22:15;13.32;;;7.43;;
15273;SDS011;7738;49.532;11.156;2022-09-12T07:24:45;14.75;;;8.75;;
15273;SDS011;7738;49.532;11.156;2022-09-12T07:27:15;15.43;;;8.60;;
15273;SDS011;7738;49.532;11.156;2022-09-12T07:29:45;14.82;;;8.73;;
15273;SDS011;7738;49.532;11.156;2022-09-12T07:32:15;17.08;;;8.30;;
15273;SDS011;7738;49.532;11.156;2022-09-12T07:34:45;13.90;;;8.50;;
15273;SDS011;7738;49.532;11.156;2022-09-12T07:37:18;29.33;;;8.45;;
15273;SDS011;7738;49.532;11.156;2022-09-12T07:39:47;12.77;;;8.90;;
15273;SDS011;7738;49.532;11.156;2022-09-12T07:42:18;15.00;;;9.48;;
15273;SDS011;7738;49.532;11.156;2022-09-12T07:44:48;12.45;;;8.52;;
15273;SDS011;7738;49.532;11.156;2022-09-12T07:47:19;11.48;;;8.32;;
15273;SDS011;7738;49.532;11.156;2022-09-12T07:49:49;13.13;;;8.85;;
15273;SDS011;7738;49.532;11.156;2022-09-12T07:52:21;11.25;;;7.78;;
15273;SDS011;7738;49.532;11.156;2022-09-12T07:54:51;12.77;;;9.43;;
15273;SDS011;7738;49.532;11.156;2022-09-12T07:57:21;16.15;;;9.65;;
15273;SDS011;7738;49.532;11.156;2022-09-12T07:59:51;13.52;;;9.18;;
15273;SDS011;7738;49.532;11.156;2022-09-12T08:02:21;13.48;;;9.52;;
15273;SDS011;7738;49.532;11.156;2022-09-12T08:04:51;12.98;;;9.63;;
15273;SDS011;7738;49.532;11.156;2022-09-12T08:07:24;11.43;;;8.45;;
15273;SDS011;7738;49.532;11.156;2022-09-12T08:09:54;13.93;;;9.20;;
15273;SDS011;7738;49.532;11.156;2022-09-12T08:12:24;14.73;;;10.93;;
15273;SDS011;7738;49.532;11.156;2022-09-12T08:14:54;14.82;;;8.77;;
15273;SDS011;7738;49.532;11.156;2022-09-12T08:17:24;12.27;;;9.15;;
15273;SDS011;7738;49.532;11.156;2022-09-12T08:19:55;14.00;;;9.48;;
15273;SDS011;7738;49.532;11.156;2022-09-12T08:22:28;13.57;;;8.90;;
15273;SDS011;7738;49.532;11.156;2022-09-12T08:24:58;12.35;;;9.00;;
15273;SDS011;7738;49.532;11.156;2022-09-12T08:27:29;15.43;;;10.25;;
15273;SDS011;7738;49.532;11.156;2022-09-12T08:29:59;12.55;;;9.13;;
15273;SDS011;7738;49.532;11.156;2022-09-12T08:32:29;12.25;;;8.80;;
15273;SDS011;7738;49.532;11.156;2022-09-12T08:34:59;13.35;;;9.07;;
15273;SDS011;7738;49.532;11.156;2022-09-12T08:37:32;12.10;;;8.80;;
15273;SDS011;7738;49.532;11.156;2022-09-12T08:40:02;11.23;;;9.25;;
15273;SDS011;7738;49.532;11.156;2022-09-12T08:42:39;10.13;;;7.53;;
15273;SDS011;7738;49.532;11.156;2022-09-12T08:45:15;9.18;;;7.47;;
15273;SDS011;7738;49.532;11.156;2022-09-12T08:47:47;9.65;;;7.47;;
15273;SDS011;7738;49.532;11.156;2022-09-12T08:50:18;8.20;;;6.10;;
15273;SDS011;7738;49.532;11.156;2022-09-12T08:52:54;8.75;;;6.40;;
15273;SDS011;7738;49.532;11.156;2022-09-12T08:55:30;8.73;;;6.35;;
15273;SDS011;7738;49.532;11.156;2022-09-12T08:58:03;7.75;;;5.93;;
15273;SDS011;7738;49.532;11.156;2022-09-12T09:00:41;7.60;;;6.10;;
15273;SDS011;7738;49.532;11.156;2022-09-12T09:03:24;8.13;;;5.78;;
15273;SDS011;7738;49.532;11.156;2022-09-12T09:06:22;6.28;;;5.25;;
15273;SDS011;7738;49.532;11.156;2022-09-12T09:09:02;6.07;;;5.15;;
15273;SDS011;7738;49.532;11.156;2022-09-12T09:11:42;5.10;;;4.60;;
15273;SDS011;7738;49.532;11.156;2022-09-12T09:14:39;5.40;;;3.95;;
15273;SDS011;7738;49.532;11.156;2022-09-12T09:17:18;6.07;;;4.07;;
15273;SDS011;7738;49.532;11.156;2022-09-12T09:19:55;5.82;;;3.78;;
15273;SDS011;7738;49.532;11.156;2022-09-12T09:22:33;5.55;;;4.07;;
15273;SDS011;7738;49.532;11.156;2022-09-12T09:25:10;6.45;;;3.03;;
15273;SDS011;7738;49.532;11.156;2022-09-12T09:27:50;6.80;;;5.00;;
15273;SDS011;7738;49.532;11.156;2022-09-12T09:30:26;6.18;;;5.45;;
15273;SDS011;7738;49.532;11.156;2022-09-12T09:32:57;5.22;;;4.15;;
15273;SDS011;7738;49.532;11.156;2022-09-12T09:35:31;12.43;;;3.78;;
15273;SDS011;7738;49.532;11.156;2022-09-12T09:38:12;6.47;;;4.07;;
15273;SDS011;7738;49.532;11.156;2022-09-12T09:40:57;4.30;;;3.80;;
15273;SDS011;7738;49.532;11.156;2022-09-12T09:43:44;5.72;;;3.47;;
15273;SDS011;7738;49.532;11.156;2022-09-12T09:46:14;3.30;;;3.00;;
15273;SDS011;7738;49.532;11.156;2022-09-12T09:48:45;3.13;;;2.67;;
15273;SDS011;7738;49.532;11.156;2022-09-12T09:51:18;4.38;;;3.00;;
15273;SDS011;7738;49.532;11.156;2022-09-12T09:53:53;4.50;;;3.05;;
15273;SDS011;7738;49.532;11.156;2022-09-12T09:56:31;3.20;;;2.60;;
15273;SDS011;7738;49.532;11.156;2022-09-12T09:59:09;5.22;;;3.53;;
15273;SDS011;7738;49.532;11.156;2022-09-12T10:01:43;3.35;;;2.78;;
15273;SDS011;7738;49.532;11.156;2022-09-12T10:04:18;5.38;;;2.95;;
15273;SDS011;7738;49.532;11.156;2022-09-12T10:06:52;3.95;;;3.40;;
15273;SDS011;7738;49.532;11.156;2022-09-12T10:09:24;4.75;;;3.50;;
15273;SDS011;7738;49.532;11.156;2022-09-12T10:11:58;3.97;;;3.30;;
15273;SDS011;7738;49.532;11.156;2022-09-12T10:14:36;3.38;;;3.08;;
15273;SDS011;7738;49.532;11.156;2022-09-12T10:17:21;3.30;;;3.00;;
15273;SDS011;7738;49.532;11.156;2022-09-12T10:19:57;4.93;;;3.25;;
15273;SDS011;7738;49.532;11.156;2022-09-12T10:22:46;4.00;;;3.60;;
15273;SDS011;7738;49.532;11.156;2022-09-12T10:25:17;4.28;;;2.92;;
15273;SDS011;7738;49.532;11.156;2022-09-12T10:27:55;5.55;;;3.00;;
15273;SDS011;7738;49.532;11.156;2022-09-12T10:30:26;3.80;;;3.45;;
15273;SDS011;7738;49.532;11.156;2022-09-12T10:32:57;3.60;;;2.72;;
15273;SDS011;7738;49.532;11.156;2022-09-12T10:35:28;3.05;;;2.33;;
15273;SDS011;7738;49.532;11.156;2022-09-12T10:38:00;3.65;;;2.60;;
15273;SDS011;7738;49.532;11.156;2022-09-12T10:40:33;3.10;;;2.58;;
15273;SDS011;7738;49.532;11.156;2022-09-12T10:43:17;3.80;;;2.92;;
15273;SDS011;7738;49.532;11.156;2022-09-12T10:45:58;4.30;;;2.70;;
15273;SDS011;7738;49.532;11.156;2022-09-12T10:48:49;2.38;;;2.15;;
15273;SDS011;7738;49.532;11.156;2022-09-12T10:51:26;3.35;;;2.63;;
15273;SDS011;7738;49.532;11.156;2022-09-12T10:53:57;2.35;;;2.08;;
15273;SDS011;7738;49.532;11.156;2022-09-12T10:56:29;4.30;;;2.47;;
15273;SDS011;7738;49.532;11.156;2022-09-12T10:59:11;5.93;;;2.00;;
15273;SDS011;7738;49.532;11.156;2022-09-12T11:01:50;3.72;;;2.35;;
15273;SDS011;7738;49.532;11.156;2022-09-12T11:04:28;3.03;;;2.40;;
15273;SDS011;7738;49.532;11.156;2022-09-12T11:07:10;2.72;;;2.10;;
15273;SDS011;7738;49.532;11.156;2022-09-12T11:09:52;3.85;;;2.13;;
15273;SDS011;7738;49.532;11.156;2022-09-12T11:12:25;6.15;;;2.35;;
15273;SDS011;7738;49.532;11.156;2022-09-12T11:15:07;4.05;;;2.47;;
15273;SDS011;7738;49.532;11.156;2022-09-12T11:17:52;2.58;;;2.17;;
15273;SDS011;7738;49.532;11.156;2022-09-12T11:20:33;2.92;;;1.83;;
15273;SDS011;7738;49.532;11.156;2022-09-12T11:25:50;2.58;;;1.92;;
15273;SDS011;7738;49.532;11.156;2022-09-12T11:28:24;3.28;;;2.20;;
15273;SDS011;7738;49.532;11.156;2022-09-12T11:31:12;3.05;;;1.95;;
15273;SDS011;7738;49.532;11.156;2022-09-12T11:33:44;2.25;;;1.90;;
15273;SDS011;7738;49.532;11.156;2022-09-12T11:36:25;2.30;;;2.08;;
15273;SDS011;7738;49.532;11.156;2022-09-12T11:39:02;2.40;;;1.85;;
15273;SDS011;7738;49.532;11.156;2022-09-12T11:41:35;3.20;;;2.63;;
15273;SDS011;7738;49.532;11.156;2022-09-12T11:44:11;3.13;;;2.35;;
15273;SDS011;7738;49.532;11.156;2022-09-12T11:46:46;2.55;;;1.90;;
15273;SDS011;7738;49.532;11.156;2022-09-12T11:49:19;3.17;;;2.47;;
15273;SDS011;7738;49.532;11.156;2022-09-12T11:52:01;2.92;;;2.50;;
15273;SDS011;7738;49.532;11.156;2022-09-12T11:54:34;4.55;;;2.55;;
15273;SDS011;7738;49.532;11.156;2022-09-12T11:57:07;2.55;;;2.03;;
15273;SDS011;7738;49.532;11.156;2022-09-12T11:59:42;2.70;;;2.30;;
15273;SDS011;7738;49.532;11.156;2022-09-12T12:02:20;2.50;;;1.80;;
15273;SDS011;7738;49.532;11.156;2022-09-12T12:04:57;2.97;;;1.85;;
15273;SDS011;7738;49.532;11.156;2022-09-12T12:07:29;3.10;;;1.88;;
15273;SDS011;7738;49.532;11.156;2022-09-12T12:10:01;2.55;;;1.70;;
15273;SDS011;7738;49.532;11.156;2022-09-12T12:12:31;4.13;;;1.60;;
15273;SDS011;7738;49.532;11.156;2022-09-12T12:15:01;2.10;;;1.90;;
15273;SDS011;7738;49.532;11.156;2022-09-12T12:17:34;3.08;;;1.75;;
15273;SDS011;7738;49.532;11.156;2022-09-12T12:20:12;2.72;;;2.08;;
15273;SDS011;7738;49.532;11.156;2022-09-12T12:22:49;2.20;;;1.67;;
15273;SDS011;7738;49.532;11.156;2022-09-12T12:25:25;2.28;;;1.70;;
15273;SDS011;7738;49.532;11.156;2022-09-12T12:28:05;1.67;;;1.38;;
15273;SDS011;7738;49.532;11.156;2022-09-12T12:36:30;1.95;;;1.38;;
15273;SDS011;7738;49.532;11.156;2022-09-12T12:41:46;2.08;;;1.58;;
15273;SDS011;7738;49.532;11.156;2022-09-12T12:47:17;5.53;;;2.20;;
15273;SDS011;7738;49.532;11.156;2022-09-12T12:49:50;3.17;;;2.00;;
15273;SDS011;7738;49.532;11.156;2022-09-12T12:52:24;3.33;;;2.10;;
15273;SDS011;7738;49.532;11.156;2022-09-12T12:54:59;2.20;;;1.60;;
15273;SDS011;7738;49.532;11.156;2022-09-12T12:57:39;1.80;;;1.60;;
15273;SDS011;7738;49.532;11.156;2022-09-12T13:00:25;3.25;;;1.77;;
15273;SDS011;7738;49.532;11.156;2022-09-12T13:02:57;4.05;;;1.55;;
15273;SDS011;7738;49.532;11.156;2022-09-12T13:05:37;1.73;;;1.52;;
15273;SDS011;7738;49.532;11.156;2022-09-12T13:08:28;2.00;;;1.80;;
15273;SDS011;7738;49.532;11.156;2022-09-12T13:10:59;2.85;;;1.90;;
15273;SDS011;7738;49.532;11.156;2022-09-12T13:13:33;1.95;;;1.75;;
15273;SDS011;7738;49.532;11.156;2022-09-12T13:16:05;2.03;;;1.83;;
15273;SDS011;7738;49.532;11.156;2022-09-12T13:18:39;2.35;;;1.70;;
15273;SDS011;7738;49.532;11.156;2022-09-12T13:21:12;2.25;;;1.55;;
15273;SDS011;7738;49.532;11.156;2022-09-12T13:23:46;2.08;;;1.55;;
15273;SDS011;7738;49.532;11.156;2022-09-12T13:26:31;7.15;;;1.70;;
15273;SDS011;7738;49.532;11.156;2022-09-12T13:29:07;2.60;;;2.00;;
15273;SDS011;7738;49.532;11.156;2022-09-12T13:31:38;2.17;;;1.65;;
15273;SDS011;7738;49.532;11.156;2022-09-12T13:34:14;1.52;;;1.25;;
15273;SDS011;7738;49.532;11.156;2022-09-12T13:39:49;2.40;;;2.03;;
15273;SDS011;7738;49.532;11.156;2022-09-12T13:42:35;2.38;;;1.60;;
15273;SDS011;7738;49.532;11.156;2022-09-12T13:45:14;3.58;;;1.75;;
15273;SDS011;7738;49.532;11.156;2022-09-12T13:47:49;7.03;;;1.90;;
15273;SDS011;7738;49.532;11.156;2022-09-12T13:50:24;2.22;;;1.52;;
15273;SDS011;7738;49.532;11.156;2022-09-12T13:52:57;2.90;;;1.60;;
15273;SDS011;7738;49.532;11.156;2022-09-12T13:55:31;3.45;;;2.05;;
15273;SDS011;7738;49.532;11.156;2022-09-12T13:58:02;3.03;;;1.90;;
15273;SDS011;7738;49.532;11.156;2022-09-12T14:00:33;2.55;;;1.90;;
15273;SDS011;7738;49.532;11.156;2022-09-12T14:03:13;3.50;;;1.90;;
15273;SDS011;7738;49.532;11.156;2022-09-12T14:06:02;2.30;;;1.98;;
15273;SDS011;7738;49.532;11.156;2022-09-12T14:08:33;2.63;;;1.60;;
15273;SDS011;7738;49.532;11.156;2022-09-12T14:11:14;3.03;;;2.25;;
15273;SDS011;7738;49.532;11.156;2022-09-12T14:13:45;3.00;;;1.88;;
15273;SDS011;7738;49.532;11.156;2022-09-12T14:16:15;2.17;;;1.50;;
15273;SDS011;7738;49.532;11.156;2022-09-12T14:18:46;2.95;;;2.08;;
15273;SDS011;7738;49.532;11.156;2022-09-12T14:21:30;2.88;;;1.80;;
15273;SDS011;7738;49.532;11.156;2022-09-12T14:24:03;3.75;;;2.05;;
15273;SDS011;7738;49.532;11.156;2022-09-12T14:26:37;1.80;;;1.33;;
15273;SDS011;7738;49.532;11.156;2022-09-12T14:29:08;2.42;;;2.05;;
15273;SDS011;7738;49.532;11.156;2022-09-12T14:31:42;2.03;;;1.73;;
15273;SDS011;7738;49.532;11.156;2022-09-12T14:34:13;2.95;;;2.28;;
15273;SDS011;7738;49.532;11.156;2022-09-12T14:36:44;3.30;;;2.08;;
15273;SDS011;7738;49.532;11.156;2022-09-12T14:39:23;2.08;;;1.88;;
15273;SDS011;7738;49.532;11.156;2022-09-12T14:42:02;2.38;;;1.85;;
15273;SDS011;7738;49.532;11.156;2022-09-12T14:44:34;2.35;;;2.00;;
15273;SDS011;7738;49.532;11.156;2022-09-12T14:47:12;5.53;;;1.80;;
15273;SDS011;7738;49.532;11.156;2022-09-12T14:49:42;3.00;;;1.90;;
15273;SDS011;7738;49.532;11.156;2022-09-12T14:55:03;2.53;;;1.85;;
15273;SDS011;7738;49.532;11.156;2022-09-12T14:57:37;4.28;;;1.58;;
15273;SDS011;7738;49.532;11.156;2022-09-12T15:00:14;2.10;;;1.88;;
15273;SDS011;7738;49.532;11.156;2022-09-12T15:02:50;2.42;;;1.80;;
15273;SDS011;7738;49.532;11.156;2022-09-12T15:05:23;2.20;;;1.90;;
15273;SDS011;7738;49.532;11.156;2022-09-12T15:07:54;3.00;;;2.05;;
15273;SDS011;7738;49.532;11.156;2022-09-12T15:10:26;1.95;;;1.70;;
15273;SDS011;7738;49.532;11.156;2022-09-12T15:13:11;4.07;;;2.30;;
15273;SDS011;7738;49.532;11.156;2022-09-12T15:15:42;4.18;;;1.90;;
15273;SDS011;7738;49.532;11.156;2022-09-12T15:18:13;2.67;;;1.98;;
15273;SDS011;7738;49.532;11.156;2022-09-12T15:20:44;3.13;;;2.08;;
15273;SDS011;7738;49.532;11.156;2022-09-12T15:23:16;3.08;;;1.92;;
15273;SDS011;7738;49.532;11.156;2022-09-12T15:25:47;2.25;;;2.05;;
15273;SDS011;7738;49.532;11.156;2022-09-12T15:28:20;3.92;;;2.05;;
15273;SDS011;7738;49.532;11.156;2022-09-12T15:30:52;2.67;;;1.85;;
15273;SDS011;7738;49.532;11.156;2022-09-12T15:33:24;2.75;;;1.83;;
15273;SDS011;7738;49.532;11.156;2022-09-12T15:35:54;6.70;;;3.15;;
15273;SDS011;7738;49.532;11.156;2022-09-12T15:38:24;2.78;;;2.13;;
15273;SDS011;7738;49.532;11.156;2022-09-12T15:40:54;2.97;;;2.30;;
15273;SDS011;7738;49.532;11.156;2022-09-12T15:43:27;2.65;;;2.05;;
15273;SDS011;7738;49.532;11.156;2022-09-12T15:45:57;3.37;;;1.70;;
15273;SDS011;7738;49.532;11.156;2022-09-12T15:48:33;2.10;;;1.90;;
15273;SDS011;7738;49.532;11.156;2022-09-12T15:51:03;2.30;;;1.80;;
15273;SDS011;7738;49.532;11.156;2022-09-12T15:53:37;2.58;;;2.20;;
15273;SDS011;7738;49.532;11.156;2022-09-12T15:56:08;3.88;;;1.80;;
15273;SDS011;7738;49.532;11.156;2022-09-12T15:58:40;3.78;;;1.90;;
15273;SDS011;7738;49.532;11.156;2022-09-12T16:01:24;2.50;;;2.05;;